Time;durP1;ratioP1;P1;durP2;ratioP2;P2;SDS_P1;SDS_P2;PMS_P1;PMS_P2;Temp;Humidity;BMP_temperature;BMP_pressure;BME280_temperature;BME280_humidity;BME280_pressure;Samples;Min_cycle;Max_cycle;Signal;HPM_P1;HPM_P2
2022/06/22 00:00:47;;;;;;;6.10;1.77;;;;;;;41.19;10.87;100727.81;5096025;28;20436;-57
2022/06/22 00:03:14;;;;;;;8.47;2.47;;;;;;;41.35;13.54;100725.25;5096791;28;20032;-57
2022/06/22 00:05:47;;;;;;;6.93;1.77;;;;;;;40.72;10.85;100723.88;5096325;28;20092;-57
2022/06/22 00:08:20;;;;;;;3.15;1.30;;;;;;;40.90;9.67;100730.13;5096205;28;20119;-58
2022/06/22 00:10:56;;;;;;;1.60;0.85;;;;;;;40.73;7.25;100717.84;5096058;28;20035;-58
2022/06/22 00:13:27;;;;;;;3.38;0.80;;;;;;;40.79;8.54;100724.59;5095866;28;20466;-56
2022/06/22 00:16:13;;;;;;;2.42;0.63;;;;;;;40.83;7.72;100725.38;5095725;28;20375;-57
2022/06/22 00:18:41;;;;;;;2.50;0.75;;;;;;;40.46;8.42;100719.69;5095457;28;20066;-60
2022/06/22 00:21:35;;;;;;;3.42;0.75;;;;;;;40.09;7.80;100718.34;5095181;28;20028;-58
2022/06/22 00:24:22;;;;;;;1.05;0.70;;;;;;;40.02;7.31;100721.19;5095561;28;20020;-58
2022/06/22 00:26:55;;;;;;;2.05;0.85;;;;;;;39.80;8.27;100715.69;5095428;28;20025;-58
2022/06/22 00:29:24;;;;;;;2.70;0.90;;;;;;;39.62;8.13;100709.41;5095228;28;20077;-58
2022/06/22 00:31:50;;;;;;;3.67;0.82;;;;;;;39.47;8.13;100717.03;5093946;28;20109;-58
2022/06/22 00:34:20;;;;;;;3.58;0.70;;;;;;;39.51;7.82;100723.44;5095324;28;20165;-58
2022/06/22 00:37:05;;;;;;;1.50;0.80;;;;;;;39.36;7.86;100710.69;5094814;28;20031;-57
2022/06/22 00:39:31;;;;;;;2.28;0.70;;;;;;;39.24;8.76;100708.34;5095143;28;20032;-57
2022/06/22 00:42:15;;;;;;;3.22;0.73;;;;;;;39.22;7.22;100699.56;5094494;28;20051;-59
2022/06/22 00:44:57;;;;;;;3.95;0.95;;;;;;;39.32;8.43;100704.31;5094835;28;20047;-57
2022/06/22 00:47:25;;;;;;;2.60;0.93;;;;;;;39.26;8.78;100701.16;5094790;28;20024;-57
2022/06/22 00:49:56;;;;;;;2.78;0.70;;;;;;;39.06;8.45;100697.19;5094466;28;20024;-56
2022/06/22 00:52:38;;;;;;;1.45;0.80;;;;;;;39.26;7.84;100700.34;5094991;28;20450;-56
2022/06/22 00:55:16;;;;;;;3.88;0.80;;;;;;;39.42;8.12;100692.25;5095042;28;20473;-57
2022/06/22 00:57:50;;;;;;;3.33;0.82;;;;;;;39.25;8.13;100690.34;5094847;28;20061;-56
2022/06/22 01:00:21;;;;;;;2.05;0.82;;;;;;;39.43;8.32;100695.88;5094649;28;20039;-56
2022/06/22 01:02:56;;;;;;;0.95;0.60;;;;;;;39.39;8.26;100695.09;5094696;28;20034;-57
2022/06/22 01:05:31;;;;;;;1.65;0.80;;;;;;;39.41;8.71;100689.88;5094524;28;20082;-57
2022/06/22 01:08:00;;;;;;;3.55;0.80;;;;;;;39.57;7.91;100690.19;5094840;28;20032;-57
2022/06/22 01:10:32;;;;;;;9.98;2.58;;;;;;;39.38;13.78;100685.09;5094458;28;20038;-56
2022/06/22 01:13:10;;;;;;;6.80;1.00;;;;;;;39.43;9.73;100685.47;5094272;28;20028;-56
2022/06/22 01:16:01;;;;;;;2.33;1.00;;;;;;;39.39;9.03;100689.50;5094435;28;20072;-57
2022/06/22 01:18:33;;;;;;;8.82;3.72;;;;;;;39.04;16.60;100691.19;5094465;28;20051;-56
2022/06/22 01:21:07;;;;;;;8.68;3.42;;;;;;;38.45;16.76;100688.06;5094513;28;20024;-56
2022/06/22 01:24:04;;;;;;;8.90;3.28;;;;;;;38.75;16.77;100688.44;5094149;28;20476;-56
2022/06/22 01:27:01;;;;;;;9.52;3.65;;;;;;;38.41;17.35;100685.25;5094294;28;20028;-57
2022/06/22 01:29:27;;;;;;;7.80;3.20;;;;;;;38.76;16.57;100683.66;5094338;28;20483;-56
2022/06/22 01:32:13;;;;;;;7.88;3.20;;;;;;;38.81;17.05;100691.63;5094087;28;20073;-56
2022/06/22 01:34:42;;;;;;;9.88;3.33;;;;;;;38.53;16.90;100704.41;5094357;28;20040;-56
2022/06/22 01:37:28;;;;;;;7.35;3.22;;;;;;;37.89;15.72;100700.75;5093838;28;20024;-56
2022/06/22 01:40:19;;;;;;;3.47;0.90;;;;;;;38.17;10.39;100695.22;5093955;28;20082;-57
2022/06/22 01:43:06;;;;;;;1.98;0.80;;;;;;;38.14;12.76;100701.59;5093495;28;20036;-57
2022/06/22 01:45:39;;;;;;;9.30;4.18;;;;;;;37.95;18.14;100713.16;5093988;28;20464;-56
2022/06/22 01:48:22;;;;;;;12.23;3.93;;;;;;;37.02;19.22;100701.53;5092883;28;20035;-56
2022/06/22 01:51:04;;;;;;;16.23;4.23;;;;;;;37.09;18.60;100701.59;5092469;28;20119;-56
2022/06/22 01:53:34;;;;;;;10.82;3.75;;;;;;;37.08;18.18;100699.97;5093724;28;20264;-57
2022/06/22 01:56:11;;;;;;;6.72;3.40;;;;;;;37.10;18.53;100703.19;5093030;28;20434;-57
2022/06/22 01:58:56;;;;;;;7.18;3.28;;;;;;;36.92;18.65;100702.28;5094149;28;20555;-57
2022/06/22 02:01:35;;;;;;;7.95;4.10;;;;;;;37.95;18.78;100707.56;5093514;28;20028;-57
2022/06/22 02:04:16;;;;;;;5.10;1.98;;;;;;;38.32;15.71;100701.66;5093983;28;20098;-57
2022/06/22 02:10:31;;;;;;;2.83;1.40;;;;;;;38.84;13.67;100702.03;5093391;28;20043;-57
2022/06/22 02:13:18;;;;;;;2.50;0.80;;;;;;;39.10;11.91;100705.56;5093551;28;20076;-57
2022/06/22 02:16:10;;;;;;;2.15;1.00;;;;;;;39.46;11.55;100709.84;5093496;28;20026;-57
2022/06/22 02:18:43;;;;;;;6.50;2.38;;;;;;;39.58;14.19;100705.78;5093284;28;20520;-56
2022/06/22 02:21:20;;;;;;;5.63;2.38;;;;;;;40.03;14.99;100712.34;5093768;28;20044;-57
2022/06/22 02:24:09;;;;;;;8.27;2.72;;;;;;;40.44;14.87;100713.69;5093333;28;20030;-57
2022/06/22 02:26:40;;;;;;;5.45;1.80;;;;;;;40.81;12.81;100713.78;5092807;28;20089;-57
2022/06/22 02:29:07;;;;;;;3.50;1.40;;;;;;;40.98;10.62;100717.63;5093053;28;20043;-57
2022/06/22 02:31:34;;;;;;;2.38;0.90;;;;;;;40.92;9.53;100721.28;5093518;28;20024;-57
2022/06/22 02:34:02;;;;;;;1.52;0.77;;;;;;;40.71;8.95;100713.88;5093718;28;20026;-56
2022/06/22 02:36:32;;;;;;;1.65;0.60;;;;;;;40.62;9.97;100714.34;5092760;28;20031;-56
2022/06/22 02:39:02;;;;;;;0.73;0.40;;;;;;;40.85;10.78;100722.16;5093095;28;20059;-56
2022/06/22 02:44:30;;;;;;;4.60;0.90;;;;;;;40.41;10.19;100722.91;5093704;28;20030;-57
2022/06/22 02:47:18;;;;;;;2.13;0.90;;;;;;;39.42;10.03;100719.47;5092595;28;20061;-57
2022/06/22 02:49:54;;;;;;;2.10;0.80;;;;;;;39.30;10.57;100729.13;5092995;28;20028;-56
2022/06/22 02:52:23;;;;;;;3.08;0.98;;;;;;;39.29;11.08;100730.31;5093190;28;20419;-57
2022/06/22 02:54:57;;;;;;;1.70;0.65;;;;;;;38.94;11.81;100720.78;5092252;28;20070;-57
2022/06/22 02:57:47;;;;;;;1.00;0.70;;;;;;;38.42;12.43;100726.00;5092592;28;20071;-56
2022/06/22 03:00:15;;;;;;;2.45;1.02;;;;;;;38.24;13.07;100725.16;5097165;28;20127;-56
2022/06/22 03:02:42;;;;;;;1.92;0.90;;;;;;;38.19;13.11;100726.34;5096935;28;20463;-56
2022/06/22 03:05:11;;;;;;;2.03;0.80;;;;;;;37.70;13.88;100718.63;5096824;28;20036;-57
2022/06/22 03:07:42;;;;;;;3.28;0.90;;;;;;;37.29;14.66;100720.81;5096748;28;20060;-56
2022/06/22 03:10:22;;;;;;;1.35;0.57;;;;;;;37.02;14.64;100720.28;5097338;28;20045;-57
2022/06/22 03:12:49;;;;;;;2.55;0.70;;;;;;;36.70;14.49;100723.59;5096648;28;20024;-56
2022/06/22 03:15:21;;;;;;;2.35;0.60;;;;;;;35.82;14.76;100729.91;5096327;28;20070;-57
2022/06/22 03:17:48;;;;;;;2.17;0.80;;;;;;;35.61;15.11;100734.03;5096593;28;20077;-56
2022/06/22 03:20:22;;;;;;;1.45;0.75;;;;;;;35.38;15.34;100739.69;5096386;28;20472;-56
2022/06/22 03:22:51;;;;;;;;;;;;;;;34.96;15.59;100736.28;5097332;28;20475;-56
2022/06/22 03:25:30;;;;;;;3.78;0.73;;;;;;;34.14;16.78;100738.41;5096551;28;19911;-56
2022/06/22 03:28:04;;;;;;;1.95;0.77;;;;;;;34.29;17.67;100745.03;5096483;28;20031;-57
2022/06/22 03:30:57;;;;;;;3.05;0.93;;;;;;;33.91;18.09;100746.69;5096334;28;20031;-57
2022/06/22 03:33:44;;;;;;;4.88;0.93;;;;;;;33.61;17.80;100750.06;5094275;28;20044;-57
2022/06/22 03:36:19;;;;;;;2.17;0.90;;;;;;;33.56;18.35;100749.53;5096247;28;20054;-57
2022/06/22 03:38:51;;;;;;;1.90;0.90;;;;;;;33.43;19.17;100751.66;5096248;28;20495;-57
2022/06/22 03:41:24;;;;;;;1.05;0.60;;;;;;;33.26;19.26;100750.06;5095787;28;20028;-57
2022/06/22 03:44:27;;;;;;;1.40;0.82;;;;;;;33.03;19.97;100752.69;5096103;28;20120;-57
2022/06/22 03:47:04;;;;;;;2.00;0.50;;;;;;;32.89;19.61;100748.78;5086392;28;20125;-57
2022/06/22 03:49:53;;;;;;;3.97;0.73;;;;;;;32.66;20.33;100746.63;5096504;28;20027;-57
2022/06/22 03:52:45;;;;;;;1.92;0.70;;;;;;;32.42;21.02;100755.09;5095934;28;20047;-57
2022/06/22 03:55:20;;;;;;;4.25;1.10;;;;;;;32.32;20.27;100745.34;5096049;28;20488;-57
2022/06/22 03:57:51;;;;;;;1.67;0.95;;;;;;;32.14;20.08;100753.16;5095974;28;20032;-57
2022/06/22 04:00:18;;;;;;;2.88;0.90;;;;;;;31.76;18.49;100751.69;5096193;28;20016;-57
2022/06/22 04:02:45;;;;;;;2.47;0.80;;;;;;;32.05;18.36;100749.75;5095421;28;20023;-57
2022/06/22 04:05:19;;;;;;;5.25;1.17;;;;;;;31.70;19.27;100747.53;5095772;28;20560;-57
2022/06/22 04:07:45;;;;;;;;;;;;;;;31.65;19.70;100760.81;5096102;28;20115;-57
2022/06/22 04:10:38;;;;;;;2.10;0.98;;;;;;;31.48;19.88;100750.81;5094575;28;20264;-57
2022/06/22 04:13:11;;;;;;;3.15;1.15;;;;;;;31.18;19.13;100759.38;5095860;28;20028;-57
2022/06/22 04:16:13;;;;;;;3.22;0.95;;;;;;;31.05;20.86;100754.22;5095590;28;20107;-56
2022/06/22 04:19:18;;;;;;;2.00;0.95;;;;;;;30.96;20.21;100760.66;5072166;28;20068;-56
2022/06/22 04:22:01;;;;;;;2.42;1.10;;;;;;;30.69;19.93;100764.09;5095362;28;20443;-57
2022/06/22 04:24:51;;;;;;;3.47;1.15;;;;;;;30.64;21.11;100756.00;5095607;28;20039;-57
2022/06/22 04:27:32;;;;;;;3.30;1.02;;;;;;;30.64;22.44;100770.63;5095163;28;20388;-56
2022/06/22 04:30:04;;;;;;;3.08;1.38;;;;;;;30.39;22.05;100771.75;5095281;28;20020;-57
2022/06/22 04:32:39;;;;;;;2.63;1.05;;;;;;;30.41;22.33;100770.25;5094954;28;20016;-56
2022/06/22 04:35:29;;;;;;;4.05;1.15;;;;;;;30.29;21.90;100766.66;5095204;28;20028;-57
2022/06/22 04:38:07;;;;;;;2.35;1.08;;;;;;;29.93;22.83;100774.44;5095410;28;20028;-57
2022/06/22 04:40:45;;;;;;;3.20;0.88;;;;;;;29.34;22.49;100782.00;5095707;28;20024;-56
2022/06/22 04:43:11;;;;;;;2.83;1.90;;;;;;;29.11;22.58;100779.53;5095022;28;20040;-56
2022/06/22 04:45:41;;;;;;;7.05;2.10;;;;;;;29.30;23.96;100787.34;5095752;28;20031;-57
2022/06/22 04:48:20;;;;;;;5.10;2.17;;;;;;;29.41;26.13;100785.00;5094997;28;20032;-56
2022/06/22 04:50:51;;;;;;;7.20;2.17;;;;;;;29.41;26.45;100785.81;5095093;28;20024;-56
2022/06/22 04:53:23;;;;;;;3.95;2.05;;;;;;;29.25;26.58;100783.97;5095535;28;20486;-57
2022/06/22 04:55:51;;;;;;;7.35;2.70;;;;;;;29.02;26.17;100787.03;5095294;28;20101;-56
2022/06/22 04:58:43;;;;;;;7.70;2.80;;;;;;;29.06;26.77;100792.69;5094655;28;20490;-56
2022/06/22 05:01:19;;;;;;;8.15;2.85;;;;;;;29.04;27.45;100792.19;5095040;28;20024;-57
2022/06/22 05:03:46;;;;;;;6.72;2.65;;;;;;;28.90;27.73;100789.66;5094944;28;20052;-57
2022/06/22 05:06:22;;;;;;;7.70;3.50;;;;;;;28.64;28.69;100792.47;5094506;28;20032;-56
2022/06/22 05:08:58;;;;;;;8.48;4.00;;;;;;;28.52;28.59;100793.16;5094821;28;20032;-56
2022/06/22 05:11:31;;;;;;;6.82;3.83;;;;;;;28.54;25.88;100798.34;5094538;28;20035;-56
2022/06/22 05:13:59;;;;;;;7.90;3.78;;;;;;;28.27;25.83;100797.56;5094334;28;20024;-56
2022/06/22 05:16:30;;;;;;;7.07;3.83;;;;;;;28.40;26.63;100806.81;5094557;28;20020;-56
2022/06/22 05:18:58;;;;;;;4.20;2.78;;;;;;;28.28;26.72;100801.13;5094210;28;20028;-56
2022/06/22 05:21:45;;;;;;;7.50;3.40;;;;;;;27.97;26.86;100799.38;5094056;28;20028;-56
2022/06/22 05:24:32;;;;;;;4.90;3.03;;;;;;;28.09;26.92;100799.53;5094229;28;20028;-57
2022/06/22 05:27:04;;;;;;;3.83;2.60;;;;;;;27.82;27.40;100805.38;5094499;28;20541;-56
2022/06/22 05:29:39;;;;;;;5.22;2.30;;;;;;;27.70;25.75;100796.94;5094674;28;20068;-56
2022/06/22 05:32:17;;;;;;;5.63;2.42;;;;;;;27.68;26.31;100799.97;5094444;28;20051;-56
2022/06/22 05:34:47;;;;;;;5.50;2.55;;;;;;;27.71;26.35;100804.06;5093939;28;20020;-56
2022/06/22 05:37:24;;;;;;;3.97;2.22;;;;;;;27.43;27.10;100809.81;5094107;28;20421;-56
2022/06/22 05:39:52;;;;;;;4.43;2.55;;;;;;;27.30;27.30;100810.75;5093960;28;20035;-56
2022/06/22 05:42:21;;;;;;;3.58;2.22;;;;;;;27.11;28.33;100813.75;5093539;28;20499;-57
2022/06/22 05:44:48;;;;;;;3.28;2.13;;;;;;;27.05;28.26;100809.50;5094107;28;20081;-56
2022/06/22 05:47:27;;;;;;;4.28;2.30;;;;;;;26.89;28.51;100806.38;5093622;28;20024;-56
2022/06/22 05:50:20;;;;;;;4.45;2.30;;;;;;;26.87;28.68;100805.06;5094089;28;20103;-57
2022/06/22 05:52:52;;;;;;;2.58;1.80;;;;;;;26.80;28.69;100809.06;5093656;28;20089;-57
2022/06/22 05:55:28;;;;;;;2.40;1.67;;;;;;;26.63;28.77;100810.91;5093866;28;20099;-57
2022/06/22 05:58:27;;;;;;;4.10;1.63;;;;;;;26.52;29.02;100802.94;5093887;28;20516;-56
2022/06/22 06:00:57;;;;;;;4.45;2.00;;;;;;;26.31;29.42;100801.81;5069100;28;20547;-57
2022/06/22 06:03:58;;;;;;;5.15;2.22;;;;;;;26.22;30.46;100798.22;5093369;28;20540;-56
2022/06/22 06:06:35;;;;;;;4.30;2.25;;;;;;;26.14;30.87;100791.50;5061177;28;20036;-56
2022/06/22 06:09:04;;;;;;;4.90;2.00;;;;;;;26.11;31.23;100800.38;5093335;28;20024;-56
2022/06/22 06:11:40;;;;;;;3.80;1.73;;;;;;;26.00;31.24;100790.78;5093274;28;20024;-56
2022/06/22 06:14:14;;;;;;;4.45;2.15;;;;;;;25.90;31.48;100788.28;5093344;28;20048;-57
2022/06/22 06:16:51;;;;;;;5.18;1.92;;;;;;;25.77;31.93;100789.94;5093296;28;20380;-56
2022/06/22 06:19:21;;;;;;;4.43;1.77;;;;;;;25.67;31.65;100782.72;5093045;28;20525;-56
2022/06/22 06:21:53;;;;;;;2.90;1.88;;;;;;;25.78;31.60;100780.59;5093211;28;20027;-57
2022/06/22 06:27:34;;;;;;;3.40;1.90;;;;;;;25.57;31.10;100776.66;5093380;28;20028;-56
2022/06/22 06:27:38;;;;;;;3.70;1.75;;;;;;;25.47;31.46;100781.22;5093051;28;20360;-56
2022/06/22 06:30:07;;;;;;;3.45;1.30;;;;;;;25.45;31.83;100785.41;5093039;28;20088;-57
2022/06/22 06:32:46;;;;;;;3.90;1.70;;;;;;;25.37;31.56;100777.91;5092929;28;20024;-57
2022/06/22 06:35:27;;;;;;;3.67;1.85;;;;;;;25.27;31.58;100776.22;5093112;28;20027;-56
2022/06/22 06:38:23;;;;;;;4.25;1.60;;;;;;;25.14;32.12;100779.75;5093890;28;20460;-56
2022/06/22 06:41:01;;;;;;;3.38;1.80;;;;;;;25.09;32.65;100785.31;5087985;28;20035;-57
2022/06/22 06:43:44;;;;;;;5.10;1.63;;;;;;;24.98;32.71;100785.50;5092798;28;20051;-57
2022/06/22 06:46:31;;;;;;;4.15;1.75;;;;;;;24.96;32.22;100785.00;5093634;28;20028;-56
2022/06/22 06:49:24;;;;;;;2.63;1.30;;;;;;;24.88;31.49;100793.94;5092770;28;20039;-56
2022/06/22 06:52:01;;;;;;;3.90;1.30;;;;;;;24.73;31.12;100792.28;5093151;28;20379;-56
2022/06/22 06:54:30;;;;;;;3.42;1.88;;;;;;;24.41;31.52;100795.84;5092757;28;20055;-56
2022/06/22 06:56:59;;;;;;;3.47;2.60;;;;;;;24.52;33.05;100792.94;5093405;28;20024;-56
2022/06/22 06:59:29;;;;;;;6.70;4.82;;;;;;;24.38;32.91;100790.19;5092872;28;20028;-56
2022/06/22 07:01:59;;;;;;;9.48;6.65;;;;;;;24.36;32.97;100787.72;5092721;28;20035;-56
2022/06/22 07:04:29;;;;;;;11.52;9.13;;;;;;;24.31;33.06;100790.53;5093065;28;20032;-56
2022/06/22 07:07:23;;;;;;;17.20;13.43;;;;;;;24.29;32.91;100790.00;5092664;28;20020;-56
2022/06/22 07:09:51;;;;;;;14.38;11.95;;;;;;;24.20;32.77;100789.88;5070885;28;20491;-56
2022/06/22 07:12:36;;;;;;;9.13;7.40;;;;;;;24.09;33.78;100787.59;5092890;28;20020;-56
2022/06/22 07:15:05;;;;;;;12.85;6.20;;;;;;;23.97;33.77;100785.31;5092861;28;20479;-56
2022/06/22 07:17:32;;;;;;;6.70;5.80;;;;;;;24.09;33.99;100790.34;5092695;28;20054;-56
2022/06/22 07:20:28;;;;;;;5.40;4.38;;;;;;;24.02;34.84;100785.25;5092529;28;20028;-56
2022/06/22 07:23:00;;;;;;;;;;;;;;;24.00;34.72;100779.28;5091882;28;20426;-57
2022/06/22 07:26:05;;;;;;;6.10;2.40;;;;;;;23.80;34.95;100779.56;5092583;28;19912;-56
2022/06/22 07:28:39;;;;;;;4.03;2.00;;;;;;;23.82;34.91;100788.28;5030149;28;20056;-56
2022/06/22 07:31:11;;;;;;;3.63;2.00;;;;;;;23.84;35.19;100786.91;5083028;28;20040;-57
2022/06/22 07:33:44;;;;;;;3.83;2.03;;;;;;;23.76;36.02;100779.34;5093013;28;20044;-56
2022/06/22 07:36:10;;;;;;;2.45;1.70;;;;;;;23.64;35.79;100776.25;5092373;28;20429;-56
2022/06/22 07:38:36;;;;;;;2.47;1.63;;;;;;;23.62;36.19;100778.44;5092885;28;20055;-56
2022/06/22 07:41:22;;;;;;;2.78;1.20;;;;;;;23.60;36.02;100770.53;5092309;28;20103;-56
2022/06/22 07:44:01;;;;;;;2.38;1.33;;;;;;;23.47;36.08;100781.38;5092166;28;20059;-57
2022/06/22 07:46:57;;;;;;;3.00;1.50;;;;;;;23.43;36.87;100781.13;5094604;28;20028;-56
2022/06/22 07:49:27;;;;;;;2.67;1.20;;;;;;;23.59;36.71;100779.81;5095846;28;20032;-57
2022/06/22 07:51:56;;;;;;;3.05;1.17;;;;;;;23.34;36.41;100778.25;5095839;28;20037;-57
2022/06/22 07:54:29;;;;;;;1.75;1.10;;;;;;;23.28;37.13;100779.44;5096683;28;20020;-56
2022/06/22 07:57:16;;;;;;;4.82;1.30;;;;;;;23.43;36.94;100773.78;5095895;28;20028;-57
2022/06/22 08:00:03;;;;;;;3.63;1.55;;;;;;;23.15;37.08;100777.41;5095901;28;20060;-56
2022/06/22 08:02:35;;;;;;;1.67;1.10;;;;;;;23.18;37.56;100780.38;5085445;28;20089;-57
2022/06/22 08:05:11;;;;;;;3.28;1.02;;;;;;;23.05;37.86;100781.09;5094718;28;20025;-57
2022/06/22 08:07:56;;;;;;;2.45;0.95;;;;;;;23.01;38.26;100779.22;5095965;28;20031;-56
2022/06/22 08:10:27;;;;;;;2.73;1.00;;;;;;;22.87;38.18;100773.59;5095675;28;20036;-57
2022/06/22 08:13:06;;;;;;;2.30;1.10;;;;;;;22.89;38.43;100774.16;5095606;28;20460;-56
2022/06/22 08:15:47;;;;;;;6.47;0.93;;;;;;;22.78;38.27;100775.34;5095560;28;20471;-56
2022/06/22 08:18:14;;;;;;;2.20;1.05;;;;;;;22.82;38.00;100777.22;5095626;28;20490;-56
2022/06/22 08:20:44;;;;;;;4.40;1.10;;;;;;;22.74;38.11;100783.28;5095436;28;20115;-57
2022/06/22 08:23:20;;;;;;;4.40;1.23;;;;;;;22.65;38.00;100776.81;5095412;28;20024;-56
2022/06/22 08:25:48;;;;;;;2.00;0.85;;;;;;;22.75;36.21;100784.91;5095355;28;20047;-56
2022/06/22 08:28:18;;;;;;;2.25;0.93;;;;;;;22.70;35.86;100787.69;5095702;28;20036;-56
2022/06/22 08:30:46;;;;;;;1.88;0.80;;;;;;;22.73;35.03;100797.22;5095226;28;20073;-56
2022/06/22 08:33:16;;;;;;;4.93;1.20;;;;;;;22.79;35.54;100796.06;5095549;28;20058;-56
2022/06/22 08:35:49;;;;;;;9.32;3.35;;;;;;;22.72;40.46;100793.69;5095041;28;20099;-56
2022/06/22 08:38:29;;;;;;;15.88;5.18;;;;;;;22.63;45.67;100796.22;5095697;28;20112;-56
2022/06/22 08:41:11;;;;;;;21.88;6.10;;;;;;;22.70;50.45;100795.88;5095094;28;20503;-57
2022/06/22 08:44:07;;;;;;;22.65;5.88;;;;;;;22.76;50.73;100808.34;5094761;28;20056;-56
2022/06/22 08:46:51;;;;;;;20.98;6.00;;;;;;;22.80;50.14;100809.41;5095189;28;20028;-56
2022/06/22 08:49:42;;;;;;;24.17;6.72;;;;;;;22.59;50.46;100807.97;5095150;28;20491;-56
2022/06/22 08:52:35;;;;;;;20.58;6.18;;;;;;;22.33;51.09;100813.69;5095109;28;20035;-56
2022/06/22 08:55:29;;;;;;;24.35;6.65;;;;;;;22.20;52.18;100814.31;5095095;28;20456;-56
2022/06/22 08:58:01;;;;;;;15.18;6.00;;;;;;;22.26;51.86;100817.81;5094831;28;20035;-56
2022/06/22 09:00:27;;;;;;;20.98;6.00;;;;;;;22.03;51.66;100817.41;5095320;28;20376;-56
2022/06/22 09:03:17;;;;;;;32.40;7.55;;;;;;;21.58;52.46;100822.00;5094728;28;20039;-56
2022/06/22 09:05:57;;;;;;;23.52;7.43;;;;;;;21.73;51.28;100820.31;5094874;28;20056;-56
2022/06/22 09:08:32;;;;;;;30.98;8.25;;;;;;;21.55;51.82;100829.94;5095094;28;20027;-56
2022/06/22 09:11:17;;;;;;;22.75;7.55;;;;;;;21.13;52.91;100831.16;5094948;28;20023;-56
2022/06/22 09:13:52;;;;;;;26.75;7.78;;;;;;;21.02;52.16;100833.06;5095293;28;20024;-56
2022/06/22 09:16:30;;;;;;;27.92;7.22;;;;;;;20.99;52.19;100827.38;5094365;28;20032;-56
2022/06/22 09:19:28;;;;;;;30.85;8.73;;;;;;;20.80;52.54;100841.53;5095112;28;20028;-57
2022/06/22 09:22:23;;;;;;;25.92;8.23;;;;;;;20.54;52.13;100842.66;5039494;28;20042;-56
2022/06/22 09:25:02;;;;;;;29.27;6.77;;;;;;;20.29;52.61;100843.44;5094490;28;20031;-56
2022/06/22 09:27:53;;;;;;;27.13;7.75;;;;;;;20.14;52.32;100843.41;5094530;28;20035;-56
2022/06/22 09:30:45;;;;;;;26.77;6.82;;;;;;;20.00;52.94;100843.13;5094066;28;20499;-56
2022/06/22 09:33:39;;;;;;;27.20;7.60;;;;;;;20.00;53.13;100845.84;5094121;28;20097;-56
2022/06/22 09:36:17;;;;;;;23.13;7.22;;;;;;;19.94;53.10;100852.34;5094266;28;20026;-56
2022/06/22 09:39:04;;;;;;;26.45;7.47;;;;;;;19.86;53.80;100842.00;5094303;28;20030;-56
2022/06/22 09:41:57;;;;;;;26.60;7.78;;;;;;;19.60;54.34;100841.94;5094002;28;20537;-56
2022/06/22 09:45:00;;;;;;;22.48;7.13;;;;;;;19.32;54.88;100836.88;5093728;28;20031;-57
2022/06/22 09:47:32;;;;;;;29.48;7.88;;;;;;;19.48;54.38;100846.72;5094157;28;20498;-56
2022/06/22 09:50:14;;;;;;;30.20;8.10;;;;;;;19.50;55.30;100848.09;5093476;28;20035;-56
2022/06/22 09:52:48;;;;;;;27.38;7.55;;;;;;;19.56;54.93;100848.94;5093663;28;20032;-56
2022/06/22 09:58:36;;;;;;;28.75;7.25;;;;;;;19.45;54.16;100841.84;5093800;28;20135;-56
2022/06/22 10:01:11;;;;;;;25.48;6.45;;;;;;;19.52;53.70;100847.81;5093362;28;20031;-56
2022/06/22 10:03:56;;;;;;;28.17;7.63;;;;;;;19.41;53.96;100846.97;5093397;28;20431;-56
2022/06/22 10:06:47;;;;;;;31.20;8.00;;;;;;;19.17;54.43;100854.72;5093524;28;20027;-57
2022/06/22 10:09:34;;;;;;;27.90;7.25;;;;;;;19.01;54.17;100852.19;5092526;28;20039;-56
2022/06/22 10:12:12;;;;;;;25.30;8.02;;;;;;;19.00;54.18;100854.06;5094004;28;20016;-56
2022/06/22 10:15:02;;;;;;;26.00;7.50;;;;;;;18.81;54.39;100863.69;5093675;28;20529;-56
2022/06/22 10:17:52;;;;;;;25.52;7.55;;;;;;;18.69;54.57;100861.97;5093601;28;20028;-56
2022/06/22 10:20:35;;;;;;;22.30;7.43;;;;;;;18.55;54.64;100860.75;5093723;28;20428;-56
2022/06/22 10:23:25;;;;;;;28.52;7.70;;;;;;;18.31;55.84;100854.03;5091935;28;20169;-56
2022/06/22 10:26:10;;;;;;;30.02;7.53;;;;;;;18.29;56.45;100859.72;5093124;28;20131;-56
2022/06/22 10:29:13;;;;;;;31.55;7.70;;;;;;;18.25;56.81;100857.75;5093357;28;20446;-56
2022/06/22 10:31:48;;;;;;;25.98;7.78;;;;;;;18.13;56.92;100861.44;5093443;28;20028;-56
2022/06/22 10:34:45;;;;;;;29.83;7.13;;;;;;;18.01;57.40;100858.06;5092929;28;20032;-56
2022/06/22 10:37:23;;;;;;;30.15;7.45;;;;;;;17.99;56.97;100860.22;5084858;28;20361;-56
2022/06/22 10:46:43;;;;;;;30.35;7.65;;;;;;;17.60;58.78;100860.31;5093085;28;20495;-57
2022/06/22 10:49:40;;;;;;;30.92;8.18;;;;;;;17.60;58.57;100859.47;5092806;28;20118;-56
2022/06/22 10:52:18;;;;;;;24.90;7.30;;;;;;;17.54;58.53;100863.16;5093299;28;20028;-56
2022/06/22 10:54:59;;;;;;;21.17;7.57;;;;;;;17.45;58.98;100867.41;5092971;28;20432;-56
2022/06/22 10:57:46;;;;;;;34.20;8.10;;;;;;;17.42;58.75;100868.72;5093022;28;20100;-56
2022/06/22 11:00:20;;;;;;;29.73;7.60;;;;;;;17.38;58.49;100863.00;5093115;28;20467;-56
2022/06/22 11:03:01;;;;;;;28.17;8.25;;;;;;;17.46;58.52;100860.91;5092503;28;20051;-56
2022/06/22 11:05:27;;;;;;;31.08;7.57;;;;;;;17.56;57.86;100867.28;5092879;28;20016;-56
2022/06/22 11:08:24;;;;;;;36.35;7.93;;;;;;;17.33;58.64;100868.34;5092534;28;20016;-56
2022/06/22 11:10:56;;;;;;;32.75;7.57;;;;;;;17.18;58.92;100870.00;5092561;28;20043;-56
2022/06/22 11:13:56;;;;;;;28.00;6.80;;;;;;;17.33;58.02;100879.16;5093204;28;20031;-56
2022/06/22 11:16:44;;;;;;;26.63;8.65;;;;;;;17.08;59.20;100882.31;5092925;28;20032;-56
2022/06/22 11:19:41;;;;;;;32.75;7.80;;;;;;;17.15;59.05;100880.25;5092944;28;20032;-57
2022/06/22 11:22:16;;;;;;;26.38;6.97;;;;;;;17.12;59.08;100877.22;5097237;28;20028;-56
2022/06/22 11:24:51;;;;;;;30.88;7.13;;;;;;;17.18;58.90;100880.81;5096435;28;20145;-56
2022/06/22 11:31:08;;;;;;;19.83;6.25;;;;;;;17.01;59.07;100887.06;5096481;28;20400;-56
2022/06/22 11:33:46;;;;;;;20.25;6.53;;;;;;;17.14;58.72;100883.19;5096531;28;20431;-56
2022/06/22 11:36:22;;;;;;;28.92;8.15;;;;;;;17.09;58.81;100891.22;5096245;28;20024;-56
2022/06/22 11:38:59;;;;;;;23.63;6.85;;;;;;;17.22;58.61;100892.78;5096310;28;20073;-56
2022/06/22 11:41:55;;;;;;;26.67;6.97;;;;;;;17.22;58.52;100890.09;5096332;28;20024;-56
2022/06/22 11:44:25;;;;;;;35.30;8.13;;;;;;;17.22;58.84;100890.09;5096196;28;20061;-56
2022/06/22 11:46:58;;;;;;;25.38;6.95;;;;;;;17.12;58.94;100886.16;5096080;28;20036;-56
2022/06/22 11:49:48;;;;;;;32.35;7.22;;;;;;;16.96;59.60;100899.69;5095862;28;20043;-56
2022/06/22 11:52:33;;;;;;;29.52;7.35;;;;;;;17.01;59.64;100894.38;5095857;28;20028;-56
2022/06/22 11:55:40;;;;;;;27.53;7.10;;;;;;;16.86;60.06;100894.94;5096117;28;20066;-56
2022/06/22 11:58:31;;;;;;;26.00;7.60;;;;;;;16.89;60.01;100900.69;5062005;28;20260;-56
2022/06/22 12:01:21;;;;;;;28.70;7.50;;;;;;;16.73;60.39;100906.91;5095949;28;20030;-56
2022/06/22 12:03:58;;;;;;;25.08;7.15;;;;;;;16.82;60.16;100912.72;5096433;28;20020;-56
2022/06/22 12:07:07;;;;;;;27.63;6.72;;;;;;;16.77;60.43;100913.47;5095765;28;20024;-56
2022/06/22 12:09:45;;;;;;;27.58;7.47;;;;;;;16.70;60.36;100903.84;5073925;28;20089;-56
2022/06/22 12:12:32;;;;;;;26.02;6.53;;;;;;;16.83;59.72;100906.25;5096046;28;20138;-56
2022/06/22 12:15:23;;;;;;;24.25;7.40;;;;;;;16.77;60.15;100901.84;5095609;28;20095;-56
2022/06/22 12:18:17;;;;;;;21.60;7.50;;;;;;;16.68;60.82;100900.56;5095544;28;20031;-56
2022/06/22 12:21:05;;;;;;;22.65;7.28;;;;;;;16.81;60.04;100894.84;5074274;28;20105;-56
2022/06/22 12:23:52;;;;;;;22.13;7.05;;;;;;;16.75;60.47;100896.66;5096026;28;20103;-56
2022/06/22 12:27:11;;;;;;;27.45;7.82;;;;;;;16.73;60.43;100896.09;5095459;28;20047;-55
2022/06/22 12:29:52;;;;;;;22.27;7.35;;;;;;;16.51;61.17;100901.38;5033036;28;20091;-55
2022/06/22 12:32:28;;;;;;;27.75;5.82;;;;;;;16.68;60.73;100912.19;5094954;28;20027;-56
2022/06/22 12:35:05;;;;;;;21.77;7.72;;;;;;;16.49;61.13;100908.06;5095341;28;20027;-56
2022/06/22 12:37:56;;;;;;;22.85;6.60;;;;;;;16.50;61.04;100915.94;5095530;28;20083;-56
2022/06/22 12:40:51;;;;;;;27.10;7.15;;;;;;;16.59;60.59;100916.34;5094991;28;20024;-56